createdAt,value
2019-01-11T00:02:09.372Z,13.13
2019-01-11T00:04:39.323Z,13.27
2019-01-11T00:07:08.971Z,12.30
2019-01-11T00:09:38.915Z,12.90
2019-01-11T00:12:08.524Z,12.17
2019-01-11T00:14:38.441Z,11.93
2019-01-11T00:17:08.678Z,12.93
2019-01-11T00:19:38.285Z,12.73
2019-01-11T00:22:08.255Z,13.70
2019-01-11T00:24:38.155Z,12.70
2019-01-11T00:27:07.829Z,13.07
2019-01-11T00:29:37.453Z,12.77
2019-01-11T00:32:07.139Z,12.57
2019-01-11T00:34:36.742Z,12.00
2019-01-11T00:37:06.792Z,11.90
2019-01-11T00:39:36.468Z,13.03
2019-01-11T00:42:06.355Z,12.30
2019-01-11T00:44:35.961Z,11.50
2019-01-11T00:47:05.659Z,10.93
2019-01-11T00:49:35.273Z,10.73
2019-01-11T00:52:05.051Z,11.17
2019-01-11T00:54:34.971Z,11.10
2019-01-11T00:57:04.935Z,9.80
2019-01-11T00:59:34.543Z,9.40
2019-01-11T01:02:04.527Z,10.53
2019-01-11T01:04:34.116Z,9.83
2019-01-11T01:07:03.902Z,10.13
2019-01-11T01:09:33.495Z,9.80
2019-01-11T01:12:03.600Z,9.57
2019-01-11T01:14:34.395Z,9.30
2019-01-11T01:17:04.743Z,9.23
2019-01-11T01:19:34.310Z,8.50
2019-01-11T01:22:04.543Z,9.03
2019-01-11T01:24:34.484Z,9.17
2019-01-11T01:27:04.461Z,7.53
2019-01-11T01:29:34.031Z,9.37
2019-01-11T01:32:04.116Z,9.07
2019-01-11T01:34:33.680Z,8.10
2019-01-11T01:37:03.395Z,8.13
2019-01-11T01:39:32.971Z,7.90
2019-01-11T01:42:02.575Z,7.77
2019-01-11T01:44:32.520Z,8.27
2019-01-11T01:47:02.112Z,7.60
2019-01-11T01:49:32.028Z,6.93
2019-01-11T01:52:01.923Z,7.50
2019-01-11T01:54:31.564Z,7.40
2019-01-11T01:57:01.170Z,7.63
2019-01-11T01:59:30.779Z,7.57
2019-01-11T02:02:00.351Z,9.60
2019-01-11T02:04:30.047Z,8.27
2019-01-11T02:06:59.651Z,8.23
2019-01-11T02:09:29.515Z,7.97
2019-01-11T02:11:59.088Z,8.20
2019-01-11T02:14:28.699Z,8.53
2019-01-11T02:16:58.322Z,8.37
2019-01-11T02:19:32.898Z,7.60
2019-01-11T02:21:59.221Z,6.67
2019-01-11T02:24:28.811Z,8.30
2019-01-11T02:26:58.690Z,7.43
2019-01-11T02:29:28.299Z,7.40
2019-01-11T02:31:57.972Z,7.13
2019-01-11T02:34:27.577Z,6.60
2019-01-11T02:36:57.196Z,6.93
2019-01-11T02:39:26.800Z,7.00
2019-01-11T02:41:56.751Z,7.20
2019-01-11T02:44:26.416Z,7.07
2019-01-11T02:46:56.042Z,7.27
2019-01-11T02:49:25.706Z,6.80
2019-01-11T02:51:55.415Z,7.33
2019-01-11T02:54:25.008Z,7.33
2019-01-11T02:56:54.635Z,7.33
2019-01-11T02:59:24.272Z,8.27
2019-01-11T03:01:53.836Z,7.00
2019-01-11T03:04:23.474Z,7.93
2019-01-11T03:06:53.075Z,7.87
2019-01-11T03:09:22.718Z,8.57
2019-01-11T03:11:52.560Z,7.77
2019-01-11T03:14:22.220Z,9.13
2019-01-11T03:16:51.830Z,8.57
2019-01-11T03:19:21.426Z,9.10
2019-01-11T03:21:51.019Z,9.30
2019-01-11T03:24:20.627Z,9.13
2019-01-11T03:26:50.243Z,9.47
2019-01-11T03:29:20.928Z,9.40
2019-01-11T03:31:50.550Z,8.20
2019-01-11T03:34:20.431Z,10.03
2019-01-11T03:36:50.048Z,10.37
2019-01-11T03:39:19.646Z,19.33
2019-01-11T03:41:55.183Z,11.70
2019-01-11T03:44:24.816Z,10.60
2019-01-11T03:46:54.452Z,11.23
2019-01-11T03:49:24.070Z,11.23
2019-01-11T03:51:53.675Z,14.10
2019-01-11T03:54:23.289Z,11.93
2019-01-11T03:56:54.126Z,10.87
2019-01-11T03:59:23.794Z,15.67
2019-01-11T04:01:53.403Z,13.87
2019-01-11T04:04:23.008Z,13.10
2019-01-11T04:06:52.612Z,13.60
2019-01-11T04:09:22.313Z,13.27
2019-01-11T04:11:51.915Z,11.53
2019-01-11T04:14:21.532Z,12.60
2019-01-11T04:16:51.115Z,12.53
2019-01-11T04:19:20.736Z,19.80
2019-01-11T04:22:08.225Z,11.67
2019-01-11T04:25:03.622Z,12.43
2019-01-11T04:27:35.926Z,21.40
2019-01-11T04:30:13.767Z,13.17
2019-01-11T04:32:43.436Z,13.97
2019-01-11T04:35:13.284Z,15.53
2019-01-11T04:37:42.992Z,13.70
2019-01-11T04:40:15.023Z,16.33
2019-01-11T04:42:44.959Z,17.27
2019-01-11T04:45:14.737Z,14.43
2019-01-11T04:47:44.396Z,26.93
2019-01-11T04:50:16.955Z,13.47
2019-01-11T04:52:46.643Z,15.80
2019-01-11T04:55:16.809Z,15.40
2019-01-11T04:57:46.771Z,14.93
2019-01-11T05:00:21.443Z,16.03
2019-01-11T05:02:51.135Z,20.27
2019-01-11T05:05:21.067Z,17.00
2019-01-11T05:07:50.714Z,17.83
2019-01-11T05:10:20.830Z,16.23
2019-01-11T05:12:50.484Z,18.60
2019-01-11T05:15:20.274Z,21.83
2019-01-11T05:17:49.904Z,16.57
2019-01-11T05:20:19.688Z,18.00
2019-01-11T05:22:49.397Z,17.67
2019-01-11T05:25:18.994Z,18.67
2019-01-11T05:27:48.659Z,18.80
2019-01-11T05:30:19.759Z,17.50
2019-01-11T05:32:49.520Z,21.17
2019-01-11T05:35:19.174Z,17.60
2019-01-11T05:37:48.789Z,20.60
2019-01-11T05:40:19.547Z,18.53
2019-01-11T05:42:49.159Z,21.50
2019-01-11T05:45:18.852Z,21.40
2019-01-11T05:47:48.566Z,17.93
2019-01-11T05:50:24.025Z,20.87
2019-01-11T05:52:50.952Z,20.50
2019-01-11T05:55:42.067Z,23.73
2019-01-11T05:58:29.942Z,21.10
2019-01-11T06:00:59.570Z,20.93
2019-01-11T06:03:29.444Z,29.03
2019-01-11T06:05:59.539Z,21.47
2019-01-11T06:08:30.164Z,23.33
2019-01-11T06:10:59.914Z,23.50
2019-01-11T06:13:29.599Z,26.00
2019-01-11T06:15:59.293Z,22.63
2019-01-11T06:18:29.989Z,22.57
2019-01-11T06:20:59.648Z,28.47
2019-01-11T06:23:29.295Z,26.17
2019-01-11T06:25:59.007Z,24.83
2019-01-11T06:28:28.700Z,23.43
2019-01-11T06:30:58.334Z,24.37
2019-01-11T06:33:27.966Z,23.50
2019-01-11T06:35:57.599Z,27.80
2019-01-11T06:38:27.205Z,28.37
2019-01-11T06:40:56.895Z,25.87
2019-01-11T06:43:26.623Z,26.97
2019-01-11T06:45:56.207Z,27.27
2019-01-11T06:48:40.024Z,31.83
2019-01-11T06:51:10.066Z,38.53
2019-01-11T06:53:39.843Z,30.60
2019-01-11T06:56:09.609Z,24.87
2019-01-11T06:58:39.251Z,26.03
2019-01-11T07:01:08.881Z,29.63
2019-01-11T07:03:38.488Z,30.03
2019-01-11T07:06:08.191Z,25.70
2019-01-11T07:08:37.797Z,25.60
2019-01-11T07:11:07.424Z,26.30
2019-01-11T07:13:37.016Z,19.20
2019-01-11T07:16:07.082Z,24.10
2019-01-11T07:18:36.780Z,31.17
2019-01-11T07:21:07.513Z,26.23
2019-01-11T07:23:37.346Z,30.60
2019-01-11T07:26:07.032Z,25.20
2019-01-11T07:28:36.645Z,23.07
2019-01-11T07:31:19.336Z,23.07
2019-01-11T07:33:48.942Z,22.87
2019-01-11T07:36:26.348Z,27.93
2019-01-11T07:38:55.970Z,26.70
2019-01-11T07:41:26.168Z,28.37
2019-01-11T07:43:55.795Z,36.37
2019-01-11T07:46:26.259Z,33.80
2019-01-11T07:48:55.841Z,36.87
2019-01-11T07:51:26.575Z,29.43
2019-01-11T07:53:56.187Z,30.70
2019-01-11T07:56:25.812Z,34.33
2019-01-11T07:58:55.469Z,37.50
2019-01-11T08:01:25.254Z,28.20
2019-01-11T08:03:54.867Z,29.63
2019-01-11T08:06:24.495Z,30.13
2019-01-11T08:08:54.107Z,37.73
2019-01-11T08:11:23.772Z,34.47
2019-01-11T08:13:53.469Z,32.30
2019-01-11T08:16:23.056Z,25.63
2019-01-11T08:18:52.655Z,26.50
2019-01-11T08:21:22.273Z,32.40
2019-01-11T08:23:51.948Z,25.83
2019-01-11T08:26:21.539Z,26.97
2019-01-11T08:28:51.186Z,16.60
2019-01-11T08:31:20.825Z,28.40
2019-01-11T08:33:50.644Z,26.77
2019-01-11T08:36:20.240Z,29.23
2019-01-11T08:38:49.823Z,23.00
2019-01-11T08:41:19.456Z,28.13
2019-01-11T08:43:49.300Z,22.73
2019-01-11T08:46:18.930Z,17.57
2019-01-11T08:48:48.921Z,17.87
2019-01-11T08:51:18.655Z,22.57
2019-01-11T08:53:48.255Z,27.93
2019-01-11T08:56:17.955Z,18.20
2019-01-11T08:58:47.831Z,17.30
2019-01-11T09:01:17.758Z,17.50
2019-01-11T09:03:47.365Z,15.33
2019-01-11T09:06:17.032Z,12.57
2019-01-11T09:08:46.734Z,11.60
2019-01-11T09:11:16.319Z,9.63
2019-01-11T09:13:45.927Z,18.47
2019-01-11T09:16:20.588Z,9.23
2019-01-11T09:18:49.272Z,22.63
2019-01-11T09:21:18.892Z,34.70
2019-01-11T09:23:48.523Z,10.87
2019-01-11T09:26:18.748Z,9.70
2019-01-11T09:28:48.419Z,9.27
2019-01-11T09:31:18.111Z,18.13
2019-01-11T09:33:47.734Z,20.80
2019-01-11T09:36:17.361Z,11.67
2019-01-11T09:38:46.959Z,17.40
2019-01-11T09:41:16.565Z,6.50
2019-01-11T09:43:46.479Z,8.30
2019-01-11T09:46:16.091Z,6.63
2019-01-11T09:48:46.747Z,9.00
2019-01-11T09:51:17.309Z,6.90
2019-01-11T09:53:46.900Z,10.53
2019-01-11T09:56:16.518Z,6.03
2019-01-11T09:58:46.154Z,8.60
2019-01-11T10:01:16.381Z,4.23
2019-01-11T10:03:45.962Z,7.10
2019-01-11T10:06:15.571Z,8.47
2019-01-11T10:08:45.177Z,6.10
2019-01-11T10:11:14.828Z,7.50
2019-01-11T10:13:44.435Z,10.97
2019-01-11T10:16:14.143Z,10.43
2019-01-11T10:18:44.419Z,14.83
2019-01-11T10:21:14.844Z,10.20
2019-01-11T10:23:45.591Z,7.60
2019-01-11T10:26:15.319Z,12.77
2019-01-11T10:28:45.281Z,10.10
2019-01-11T10:31:14.918Z,9.17
2019-01-11T10:33:44.520Z,6.67
2019-01-11T10:36:14.232Z,9.30
2019-01-11T10:38:43.806Z,4.77
2019-01-11T10:41:13.432Z,8.37
2019-01-11T10:43:43.038Z,10.03
2019-01-11T10:46:31.740Z,8.90
2019-01-11T10:49:01.373Z,17.40
2019-01-11T10:51:31.027Z,6.50
2019-01-11T10:54:00.647Z,4.33
2019-01-11T10:56:30.600Z,11.47
2019-01-11T10:59:00.230Z,8.30
2019-01-11T11:01:29.818Z,7.37
2019-01-11T11:03:59.512Z,4.70
2019-01-11T11:06:29.114Z,5.27
2019-01-11T11:08:58.728Z,7.70
2019-01-11T11:11:28.330Z,5.50
2019-01-11T11:13:58.258Z,3.13
2019-01-11T11:16:28.175Z,2.00
2019-01-11T11:18:58.996Z,9.97
2019-01-11T11:21:34.485Z,2.13
2019-01-11T11:24:00.193Z,8.50
2019-01-11T11:26:29.799Z,2.37
2019-01-11T11:28:59.399Z,8.13
2019-01-11T11:31:29.030Z,5.00
2019-01-11T11:33:58.611Z,4.83
2019-01-11T11:36:28.215Z,4.47
2019-01-11T11:38:57.785Z,7.70
2019-01-11T11:41:27.747Z,3.30
2019-01-11T11:43:57.343Z,5.20
2019-01-11T11:46:27.357Z,4.00
2019-01-11T11:48:56.963Z,4.37
2019-01-11T11:51:26.567Z,5.30
2019-01-11T11:53:56.196Z,3.60
2019-01-11T11:56:25.878Z,2.50
2019-01-11T11:58:55.555Z,3.07
2019-01-11T12:01:25.246Z,2.47
2019-01-11T12:03:54.827Z,5.13
2019-01-11T12:06:24.440Z,3.80
2019-01-11T12:08:54.051Z,4.77
2019-01-11T12:11:23.674Z,4.67
2019-01-11T12:13:53.267Z,6.43
2019-01-11T12:16:23.151Z,2.50
2019-01-11T12:18:52.815Z,4.17
2019-01-11T12:21:22.663Z,5.40
2019-01-11T12:23:52.549Z,11.43
2019-01-11T12:26:22.409Z,5.53
2019-01-11T12:28:52.036Z,4.67
2019-01-11T12:31:21.640Z,2.53
2019-01-11T12:33:51.235Z,5.03
2019-01-11T12:36:20.872Z,6.07
2019-01-11T12:38:50.449Z,5.17
2019-01-11T12:41:20.080Z,7.57
2019-01-11T12:43:49.927Z,3.07
2019-01-11T12:46:19.756Z,6.80
2019-01-11T12:48:49.694Z,10.37
2019-01-11T12:51:19.360Z,5.23
2019-01-11T12:53:48.971Z,6.33
2019-01-11T12:56:18.585Z,3.70
2019-01-11T12:58:48.188Z,4.30
2019-01-11T13:01:17.796Z,7.57
2019-01-11T13:03:47.400Z,7.43
2019-01-11T13:06:17.035Z,6.80
2019-01-11T13:08:46.639Z,5.03
2019-01-11T13:11:16.402Z,9.43
2019-01-11T13:13:46.011Z,3.63
2019-01-11T13:16:15.680Z,5.87
2019-01-11T13:18:45.275Z,15.03
2019-01-11T13:21:16.016Z,6.83
2019-01-11T13:23:45.637Z,8.07
2019-01-11T13:26:16.220Z,7.20
2019-01-11T13:28:46.184Z,10.37
2019-01-11T13:31:15.764Z,9.97
2019-01-11T13:33:45.509Z,7.73
2019-01-11T13:36:19.320Z,6.07
2019-01-11T13:38:48.983Z,13.87
2019-01-11T13:41:18.580Z,11.87
2019-01-11T13:43:49.008Z,8.47
2019-01-11T13:46:18.624Z,20.30
2019-01-11T13:48:48.394Z,17.60
2019-01-11T13:51:18.045Z,10.70
2019-01-11T13:53:48.720Z,10.07
2019-01-11T13:56:19.285Z,6.77
2019-01-11T13:58:48.899Z,8.63
2019-01-11T14:01:18.535Z,17.37
2019-01-11T14:03:49.199Z,14.17
2019-01-11T14:06:19.863Z,15.60
2019-01-11T14:08:49.448Z,18.80
2019-01-11T14:11:19.095Z,16.37
2019-01-11T14:13:48.701Z,19.70
2019-01-11T14:16:18.374Z,8.33
2019-01-11T14:18:47.995Z,15.50
2019-01-11T14:21:17.591Z,19.30
2019-01-11T14:23:47.203Z,13.60
2019-01-11T14:26:16.822Z,19.13
2019-01-11T14:28:46.417Z,20.37
2019-01-11T14:31:16.306Z,13.67
2019-01-11T14:33:46.043Z,19.70
2019-01-11T14:36:15.759Z,22.13
2019-01-11T14:38:45.352Z,17.97
2019-01-11T14:41:15.649Z,21.33
2019-01-11T14:43:45.511Z,22.10
2019-01-11T14:46:15.111Z,25.83
2019-01-11T14:48:44.723Z,16.07
2019-01-11T14:51:14.559Z,20.40
2019-01-11T14:53:44.169Z,21.67
2019-01-11T14:56:13.792Z,22.63
2019-01-11T14:58:43.419Z,16.50
2019-01-11T15:01:13.053Z,17.50
2019-01-11T15:03:43.007Z,14.90
2019-01-11T15:06:12.698Z,16.23
2019-01-11T15:08:42.374Z,22.30
2019-01-11T15:11:13.176Z,28.57
2019-01-11T15:13:43.033Z,25.17
2019-01-11T15:16:12.630Z,17.23
2019-01-11T15:18:42.282Z,23.77
2019-01-11T15:21:11.980Z,21.47
2019-01-11T15:23:41.583Z,20.57
2019-01-11T15:26:11.188Z,27.23
2019-01-11T15:28:40.833Z,24.97
2019-01-11T15:31:11.483Z,17.60
2019-01-11T15:33:41.120Z,19.13
2019-01-11T15:36:10.724Z,29.40
2019-01-11T15:38:40.412Z,13.17
2019-01-11T15:41:10.421Z,20.07
2019-01-11T15:43:40.022Z,25.63
2019-01-11T15:46:15.017Z,26.87
2019-01-11T15:48:44.020Z,36.00
2019-01-11T15:51:14.218Z,28.90
2019-01-11T15:53:43.811Z,28.93
2019-01-11T15:56:13.847Z,27.97
2019-01-11T15:58:43.462Z,26.13
2019-01-11T16:01:13.262Z,30.97
2019-01-11T16:03:42.859Z,33.47
2019-01-11T16:06:29.946Z,27.00
2019-01-11T16:09:56.280Z,34.17
2019-01-11T16:13:02.240Z,31.53
2019-01-11T16:15:42.697Z,34.53
2019-01-11T16:18:19.687Z,25.37
2019-01-11T16:20:49.346Z,34.93
2019-01-11T16:23:19.018Z,34.63
2019-01-11T16:25:49.600Z,30.30
2019-01-11T16:28:19.348Z,21.33
2019-01-11T16:30:49.007Z,31.23
2019-01-11T16:33:18.605Z,34.23
2019-01-11T16:35:48.204Z,24.97
2019-01-11T16:38:17.883Z,29.43
2019-01-11T16:40:47.791Z,36.17
2019-01-11T16:43:17.387Z,32.80
2019-01-11T16:45:46.967Z,36.10
2019-01-11T16:48:16.595Z,38.13
2019-01-11T16:50:46.185Z,34.30
2019-01-11T16:53:16.166Z,38.73
2019-01-11T16:55:46.587Z,37.13
2019-01-11T16:58:17.408Z,41.60
2019-01-11T17:00:46.980Z,30.63
2019-01-11T17:03:17.007Z,32.93
2019-01-11T17:05:46.618Z,33.50
2019-01-11T17:08:16.528Z,26.93
2019-01-11T17:10:46.120Z,43.27
2019-01-11T17:13:15.771Z,38.77
2019-01-11T17:15:45.443Z,31.97
2019-01-11T17:18:15.172Z,50.23
2019-01-11T17:20:44.759Z,38.00
2019-01-11T17:23:14.369Z,31.20
2019-01-11T17:25:44.003Z,35.50
2019-01-11T17:28:13.695Z,44.97
2019-01-11T17:30:43.310Z,27.93
2019-01-11T17:33:12.908Z,43.10
2019-01-11T17:35:42.516Z,35.93
2019-01-11T17:38:12.146Z,39.13
2019-01-11T17:40:41.716Z,37.97
2019-01-11T17:43:11.312Z,38.57
2019-01-11T17:45:40.901Z,34.07
2019-01-11T17:48:10.590Z,30.40
2019-01-11T17:50:40.188Z,40.13
2019-01-11T17:53:09.824Z,27.13
2019-01-11T17:55:39.399Z,35.40
2019-01-11T17:58:09.013Z,37.97
2019-01-11T18:00:39.092Z,35.70
2019-01-11T18:03:08.728Z,41.73
2019-01-11T18:05:38.374Z,35.30
2019-01-11T18:08:08.231Z,41.17
2019-01-11T18:10:38.137Z,40.73
2019-01-11T18:13:08.092Z,41.60
2019-01-11T18:15:37.686Z,36.73
2019-01-11T18:18:07.688Z,39.80
2019-01-11T18:20:37.288Z,40.13
2019-01-11T18:23:07.333Z,39.07
2019-01-11T18:25:37.153Z,38.37
2019-01-11T18:28:06.725Z,47.23
2019-01-11T18:30:36.343Z,45.50
2019-01-11T18:33:06.332Z,40.73
2019-01-11T18:35:35.999Z,44.07
2019-01-11T18:38:05.752Z,35.63
2019-01-11T18:40:35.340Z,35.53
2019-01-11T18:43:05.039Z,42.77
2019-01-11T18:45:34.664Z,33.63
2019-01-11T18:48:04.527Z,37.73
2019-01-11T18:50:34.154Z,38.57
2019-01-11T18:53:03.828Z,38.90
2019-01-11T18:55:33.788Z,38.03
2019-01-11T18:58:03.397Z,44.77
2019-01-11T19:00:33.000Z,41.30
2019-01-11T19:03:02.682Z,41.20
2019-01-11T19:05:32.299Z,40.47
2019-01-11T19:08:02.866Z,41.27
2019-01-11T19:10:32.506Z,39.93
2019-01-11T19:13:02.088Z,38.73
2019-01-11T19:15:31.795Z,42.40
2019-01-11T19:18:01.367Z,39.70
2019-01-11T19:20:32.386Z,38.87
2019-01-11T19:23:03.038Z,44.17
2019-01-11T19:25:32.672Z,41.60
2019-01-11T19:28:02.326Z,38.03
2019-01-11T19:30:32.903Z,43.47
2019-01-11T19:33:02.757Z,38.77
2019-01-11T19:35:32.435Z,45.93
2019-01-11T19:38:02.198Z,33.80
2019-01-11T19:40:31.815Z,36.20
2019-01-11T19:43:01.418Z,40.43
2019-01-11T19:45:31.116Z,37.17
2019-01-11T19:48:00.706Z,39.17
2019-01-11T19:50:30.331Z,41.17
2019-01-11T19:53:00.004Z,37.97
2019-01-11T19:55:29.623Z,37.10
2019-01-11T19:57:59.233Z,41.50
2019-01-11T20:00:29.613Z,42.73
2019-01-11T20:02:59.330Z,39.80
2019-01-11T20:05:29.466Z,47.43
2019-01-11T20:07:59.155Z,57.53
2019-01-11T20:10:37.890Z,38.63
2019-01-11T20:13:07.635Z,48.40
2019-01-11T20:15:37.271Z,39.83
2019-01-11T20:18:07.182Z,42.60
2019-01-11T20:20:37.015Z,40.60
2019-01-11T20:23:06.669Z,34.67
2019-01-11T20:25:36.349Z,38.27
2019-01-11T20:28:06.192Z,40.47
2019-01-11T20:30:36.028Z,35.97
2019-01-11T20:33:05.833Z,35.43
2019-01-11T20:35:35.508Z,42.77
2019-01-11T20:38:05.373Z,37.50
2019-01-11T20:40:35.064Z,33.40
2019-01-11T20:43:05.077Z,42.47
2019-01-11T20:45:34.679Z,29.40
2019-01-11T20:48:04.411Z,35.03
2019-01-11T20:50:34.423Z,44.60
2019-01-11T20:53:04.290Z,39.27
2019-01-11T20:55:33.972Z,49.33
2019-01-11T20:58:03.688Z,38.03
2019-01-11T21:00:35.210Z,44.77
2019-01-11T21:03:07.382Z,44.93
2019-01-11T21:05:37.508Z,39.07
2019-01-11T21:08:07.471Z,31.87
2019-01-11T21:10:37.135Z,30.43
2019-01-11T21:13:06.909Z,34.17
2019-01-11T21:15:36.659Z,33.90
2019-01-11T21:18:06.503Z,37.80
2019-01-11T21:20:36.079Z,32.07
2019-01-11T21:23:05.924Z,33.83
2019-01-11T21:25:35.900Z,39.47
2019-01-11T21:28:05.835Z,39.57
2019-01-11T21:30:35.499Z,38.13
2019-01-11T21:33:05.394Z,42.73
2019-01-11T21:35:35.043Z,35.80
2019-01-11T21:38:04.912Z,40.67
2019-01-11T21:40:34.514Z,36.43
2019-01-11T21:43:04.384Z,29.97
2019-01-11T21:45:34.044Z,38.10
2019-01-11T21:48:03.951Z,41.53
2019-01-11T21:50:33.832Z,39.07
2019-01-11T21:53:03.520Z,41.93
2019-01-11T21:55:33.104Z,36.03
2019-01-11T21:58:02.856Z,35.97
2019-01-11T22:00:43.523Z,33.43
2019-01-11T22:03:15.868Z,36.43
2019-01-11T22:05:45.540Z,44.23
2019-01-11T22:08:15.235Z,34.00
2019-01-11T22:10:44.893Z,43.37
2019-01-11T22:13:14.501Z,33.93
2019-01-11T22:15:44.168Z,56.40
2019-01-11T22:18:13.966Z,36.77
2019-01-11T22:20:43.571Z,32.40
2019-01-11T22:23:13.172Z,34.90
2019-01-11T22:25:42.837Z,40.87
2019-01-11T22:28:12.441Z,35.93
2019-01-11T22:30:43.335Z,28.40
2019-01-11T22:33:13.135Z,38.10
2019-01-11T22:35:42.808Z,35.40
2019-01-11T22:38:12.421Z,26.20
2019-01-11T22:43:23.263Z,26.83
2019-01-11T22:45:52.847Z,36.80
2019-01-11T22:48:23.415Z,35.53
2019-01-11T22:50:52.999Z,34.20
2019-01-11T22:53:22.907Z,44.97
2019-01-11T22:55:52.481Z,39.07
2019-01-11T22:58:22.071Z,21.10
2019-01-11T23:01:12.508Z,29.90
2019-01-11T23:03:45.595Z,32.70
2019-01-11T23:06:33.507Z,40.13
2019-01-11T23:09:04.415Z,46.63
2019-01-11T23:12:00.029Z,22.40
2019-01-11T23:14:29.644Z,35.60
2019-01-11T23:17:30.605Z,29.37
2019-01-11T23:20:00.397Z,31.83
2019-01-11T23:22:29.984Z,34.50
2019-01-11T23:24:59.591Z,31.23
2019-01-11T23:27:29.167Z,30.80
2019-01-11T23:29:59.140Z,25.50
2019-01-11T23:32:29.043Z,26.70
2019-01-11T23:34:58.679Z,31.70
2019-01-11T23:37:28.628Z,22.43
2019-01-11T23:39:58.203Z,29.37
2019-01-11T23:42:28.163Z,30.30
2019-01-11T23:44:57.763Z,39.33
2019-01-11T23:47:27.372Z,29.57
2019-01-11T23:49:56.967Z,32.60
2019-01-11T23:52:26.559Z,39.40
2019-01-11T23:54:56.443Z,30.57
2019-01-11T23:57:26.055Z,32.47
2019-01-11T23:59:55.964Z,26.33
